createdAt,value
2023-05-08T00:02:22.175Z,1.58
2023-05-08T00:07:25.901Z,1.63
2023-05-08T00:12:29.496Z,1.63
2023-05-08T00:17:34.762Z,1.63
2023-05-08T00:22:38.576Z,1.70
2023-05-08T00:27:42.417Z,1.50
2023-05-08T00:32:47.856Z,1.55
2023-05-08T00:42:54.575Z,1.65
2023-05-08T00:48:00.325Z,1.30
2023-05-08T00:53:05.389Z,1.58
2023-05-08T00:58:09.352Z,1.90
2023-05-08T01:03:15.889Z,1.33
2023-05-08T01:08:19.669Z,1.85
2023-05-08T01:13:45.328Z,1.50
2023-05-08T01:19:10.573Z,1.30
2023-05-08T01:24:53.591Z,2.00
2023-05-08T01:30:20.565Z,1.75
2023-05-08T01:35:33.480Z,1.55
2023-05-08T01:40:46.418Z,1.38
2023-05-08T01:45:53.107Z,1.60
2023-05-08T01:51:04.627Z,1.50
2023-05-08T01:56:12.832Z,1.45
2023-05-08T02:01:19.381Z,1.65
2023-05-08T02:06:25.819Z,1.65
2023-05-08T02:11:31.619Z,1.95
2023-05-08T02:21:45.112Z,1.63
2023-05-08T02:26:50.643Z,1.65
2023-05-08T02:31:56.170Z,1.85
2023-05-08T02:37:04.069Z,1.60
2023-05-08T02:42:09.093Z,1.20
2023-05-08T02:47:22.189Z,1.73
2023-05-08T02:52:33.096Z,1.70
2023-05-08T02:57:44.628Z,1.60
2023-05-08T03:02:53.806Z,1.52
2023-05-08T03:08:04.473Z,1.63
2023-05-08T03:13:10.253Z,1.40
2023-05-08T03:18:18.848Z,1.42
2023-05-08T03:23:27.290Z,1.67
2023-05-08T03:28:32.486Z,1.80
2023-05-08T03:33:39.616Z,1.50
2023-05-08T03:38:46.323Z,1.73
2023-05-08T03:43:51.035Z,1.30
2023-05-08T03:48:55.364Z,1.45
2023-05-08T03:54:00.592Z,1.42
2023-05-08T03:59:15.243Z,1.57
2023-05-08T04:04:22.904Z,1.90
2023-05-08T04:09:35.452Z,1.52
2023-05-08T04:14:46.205Z,1.67
2023-05-08T04:19:56.516Z,1.60
2023-05-08T04:25:06.103Z,1.80
2023-05-08T04:30:11.010Z,1.75
2023-05-08T04:35:15.358Z,1.63
2023-05-08T04:40:20.832Z,1.90
2023-05-08T04:45:24.682Z,1.70
2023-05-08T04:50:28.291Z,1.73
2023-05-08T04:55:33.515Z,1.98
2023-05-08T05:00:37.401Z,2.17
2023-05-08T05:05:41.772Z,1.80
2023-05-08T05:10:47.083Z,1.45
2023-05-08T05:15:50.711Z,2.07
2023-05-08T05:20:54.345Z,2.33
2023-05-08T05:25:59.616Z,1.90
2023-05-08T05:31:03.322Z,2.20
2023-05-08T05:36:07.620Z,2.13
2023-05-08T05:41:12.925Z,2.10
2023-05-08T05:46:16.580Z,2.20
2023-05-08T05:51:20.253Z,2.10
2023-05-08T05:56:25.464Z,2.20
2023-05-08T06:01:29.104Z,1.90
2023-05-08T06:06:32.770Z,2.25
2023-05-08T06:11:38.047Z,2.08
2023-05-08T06:16:41.730Z,2.30
2023-05-08T06:21:45.306Z,2.28
2023-05-08T06:26:50.553Z,2.30
2023-05-08T06:31:54.157Z,2.20
2023-05-08T06:36:57.838Z,2.20
2023-05-08T06:42:03.134Z,2.30
2023-05-08T06:47:06.806Z,2.27
2023-05-08T06:52:10.404Z,2.05
2023-05-08T06:57:15.747Z,2.53
2023-05-08T07:02:19.448Z,2.57
2023-05-08T07:07:23.055Z,2.15
2023-05-08T07:12:29.184Z,2.05
2023-05-08T07:22:35.944Z,2.30
2023-05-08T07:27:41.204Z,1.98
2023-05-08T07:32:44.870Z,2.00
2023-05-08T07:37:48.541Z,2.00
2023-05-08T07:42:54.671Z,1.90
2023-05-08T07:53:02.223Z,2.17
2023-05-08T07:58:09.325Z,2.20
2023-05-08T08:03:13.077Z,2.30
2023-05-08T08:08:16.724Z,2.00
2023-05-08T08:13:22.052Z,2.70
2023-05-08T08:18:25.827Z,2.60
2023-05-08T08:23:29.427Z,2.50
2023-05-08T08:28:34.686Z,2.25
2023-05-08T08:33:38.267Z,2.17
2023-05-08T08:38:41.977Z,2.60
2023-05-08T08:43:48.178Z,2.20
2023-05-08T08:54:04.118Z,2.38
2023-05-08T08:59:09.999Z,2.00
2023-05-08T09:04:13.868Z,2.17
2023-05-08T09:09:17.695Z,2.25
2023-05-08T09:14:23.085Z,2.40
2023-05-08T09:19:29.250Z,2.13
2023-05-08T09:35:03.980Z,2.20
2023-05-08T09:40:21.996Z,1.90
2023-05-08T09:45:32.122Z,2.20
2023-05-08T09:50:36.016Z,2.22
2023-05-08T09:55:49.044Z,2.33
2023-05-08T10:00:54.410Z,2.15
2023-05-08T10:06:13.626Z,2.13
2023-05-08T10:11:17.868Z,2.20
2023-05-08T10:16:24.283Z,2.00
2023-05-08T10:21:30.433Z,2.00
2023-05-08T10:31:41.877Z,2.25
2023-05-08T10:36:46.948Z,2.50
2023-05-08T10:41:50.872Z,2.40
2023-05-08T10:47:04.437Z,2.25
2023-05-08T10:52:19.564Z,2.42
2023-05-08T10:57:23.188Z,2.67
2023-05-08T11:02:31.011Z,2.33
2023-05-08T11:07:56.177Z,2.83
2023-05-08T11:13:00.983Z,2.30
2023-05-08T11:18:07.903Z,2.40
2023-05-08T11:23:29.716Z,2.47
2023-05-08T11:28:39.499Z,2.45
2023-05-08T11:33:44.899Z,2.75
2023-05-08T11:39:08.192Z,2.93
2023-05-08T11:44:19.833Z,3.15
2023-05-08T11:49:29.708Z,3.03
2023-05-08T11:54:33.994Z,2.50
2023-05-08T11:59:37.701Z,2.95
2023-05-08T12:04:48.871Z,2.90
2023-05-08T12:09:52.604Z,2.60
2023-05-08T12:14:56.277Z,2.30
2023-05-08T12:20:11.393Z,2.55
2023-05-08T12:25:17.278Z,2.58
2023-05-08T12:30:21.432Z,2.92
2023-05-08T12:35:28.229Z,2.55
2023-05-08T12:40:34.057Z,2.70
2023-05-08T13:16:28.404Z,2.80
2023-05-08T13:26:34.955Z,2.85
2023-05-08T13:31:40.317Z,3.08
2023-05-08T15:17:45.681Z,1.55
2023-05-08T15:22:49.453Z,1.65
2023-05-08T15:27:53.120Z,2.28
2023-05-08T15:32:58.458Z,1.90
2023-05-08T15:38:02.094Z,1.97
2023-05-08T15:43:05.765Z,1.77
2023-05-08T15:48:11.025Z,2.10
2023-05-08T15:53:14.656Z,2.23
2023-05-08T15:58:18.301Z,2.00
2023-05-08T16:03:23.653Z,2.40
2023-05-08T16:08:27.372Z,2.00
2023-05-08T16:13:31.042Z,1.75
2023-05-08T16:18:36.297Z,2.38
2023-05-08T16:23:39.978Z,2.13
2023-05-08T16:28:43.580Z,2.00
2023-05-08T16:33:48.852Z,2.20
2023-05-08T16:38:52.510Z,2.17
2023-05-08T16:43:56.124Z,2.05
2023-05-08T16:49:01.404Z,2.28
2023-05-08T16:54:05.165Z,2.38
2023-05-08T16:59:08.789Z,1.70
2023-05-08T17:04:14.139Z,1.80
2023-05-08T17:09:17.727Z,2.28
2023-05-08T17:14:21.330Z,2.30
2023-05-08T17:19:26.701Z,2.42
2023-05-08T17:24:31.392Z,1.92
2023-05-08T17:29:35.105Z,2.00
2023-05-08T17:34:40.414Z,2.28
2023-05-08T17:39:44.139Z,2.10
2023-05-08T17:44:47.834Z,2.28
2023-05-08T17:49:53.089Z,2.20
2023-05-08T17:54:56.761Z,1.98
2023-05-08T18:00:00.369Z,1.90
2023-05-08T18:05:06.184Z,2.10
2023-05-08T18:10:10.548Z,2.08
2023-05-08T18:15:14.477Z,2.30
2023-05-08T18:20:20.122Z,2.20
2023-05-08T18:25:23.716Z,2.20
2023-05-08T18:30:27.342Z,2.40
2023-05-08T18:35:32.627Z,2.15
2023-05-08T18:45:40.027Z,2.38
2023-05-08T18:50:45.325Z,2.20
2023-05-08T18:55:48.952Z,1.90
2023-05-08T19:00:56.265Z,2.15
2023-05-08T19:06:01.600Z,2.10
2023-05-08T19:11:05.228Z,2.00
2023-05-08T19:16:08.911Z,2.58
2023-05-08T19:21:15.519Z,2.30
2023-05-08T19:26:19.174Z,2.42
2023-05-08T19:31:22.883Z,1.90
2023-05-08T19:36:29.104Z,2.20
2023-05-08T19:41:32.705Z,2.20
2023-05-08T19:46:36.386Z,2.30
2023-05-08T19:51:41.712Z,2.20
2023-05-08T20:01:48.151Z,2.47
2023-05-08T20:06:53.433Z,2.03
2023-05-08T20:16:59.916Z,2.20
2023-05-08T20:22:06.064Z,2.00
2023-05-08T20:27:09.734Z,2.35
2023-05-08T20:32:13.465Z,2.10
2023-05-08T20:37:18.788Z,2.30
2023-05-08T20:47:25.302Z,2.05
2023-05-08T20:52:30.549Z,1.98
2023-05-08T21:02:37.013Z,2.00
2023-05-08T21:07:42.284Z,1.92
2023-05-08T21:17:49.612Z,2.33
2023-05-08T21:22:54.909Z,2.23
2023-05-08T21:33:01.413Z,2.15
2023-05-08T21:38:06.704Z,2.00
2023-05-08T21:48:13.288Z,2.10
2023-05-08T21:53:18.553Z,2.45
2023-05-08T22:03:25.109Z,2.33
2023-05-08T22:08:30.628Z,2.35
2023-05-08T22:13:34.255Z,2.10
2023-05-08T22:18:37.871Z,1.80
2023-05-08T22:23:44.077Z,2.00
2023-05-08T22:28:47.680Z,2.40
2023-05-08T22:33:51.253Z,2.38
2023-05-08T22:38:56.551Z,2.60
2023-05-08T22:49:03.771Z,2.35
2023-05-08T22:54:09.081Z,2.30
2023-05-08T23:04:15.578Z,2.25
2023-05-08T23:09:20.872Z,2.20
2023-05-08T23:14:25.220Z,2.42
2023-05-08T23:19:28.814Z,1.98
2023-05-08T23:24:36.006Z,2.40
2023-05-08T23:29:39.606Z,2.03
2023-05-08T23:34:43.747Z,2.17
2023-05-08T23:39:49.020Z,2.42
2023-05-08T23:44:52.667Z,2.50
2023-05-08T23:49:56.331Z,2.63
2023-05-08T23:55:02.580Z,2.15
